Latest Weather Observations for Fitzroy Crossing

IDW60801

Issued at 11:32 pm WST Tuesday 7 July 2015 (issued every 30 minutes, with the page automatically refreshed every 10 minutes)

About weather observations | Map of weather stations | Latest weather observations for WA | Other Formats
Station Details ID: 003093 Name: FITZROY CROSSING AERO Lat: -18.18 Lon: 125.56 Height: 114.5 m
Data from the previous 72 hours. | See also: Recent months at Fitzroy Crossing
Date/Time
WST
Temp
°C
App
Temp
°C
Dew
Point
Rel
Hum
%
Delta-T
°C
Wind Press
QNH
hPa
Press
MSL
hPa
Rain
since 9 am
mm
Dir
 
Spd
km/h
Gust
km/h
Spd
kts
Gust
kts
07/11:30pm 16.0 13.1 1.7 38 6.4 NNW 6 6 3 3 1013.3 1012.9 0.0
07/11:00pm 17.6 14.9 2.4 36 6.9 N 6 11 3 6 1013.5 1013.2 0.0
07/10:30pm 20.4 17.5 4.4 35 7.8 SSE 9 11 5 6 1013.4 1013.0 0.0
07/10:00pm 19.3 16.4 2.6 33 7.8 SSE 7 9 4 5 1013.5 1013.2 0.0
07/09:30pm 21.2 18.2 4.3 33 8.2 SSE 9 11 5 6 1013.4 1013.0 0.0
07/09:00pm 21.9 18.6 4.5 32 8.6 SSE 11 13 6 7 1013.5 1013.2 0.0
07/08:30pm 21.8 18.1 4.4 32 8.5 SSE 13 15 7 8 1013.4 1013.0 0.0
07/08:00pm 21.9 18.0 3.6 30 8.9 SSE 13 15 7 8 1013.4 1013.0 0.0
07/07:30pm 22.7 18.7 2.8 27 9.5 S 13 15 7 8 1013.2 1012.8 0.0
07/07:00pm 24.4 20.6 3.7 26 10.2 SSW 13 13 7 7 1013.1 1012.7 0.0
07/06:30pm 25.5 22.4 3.5 24 10.9 SSW 9 11 5 6 1012.9 1012.5 0.0
07/06:00pm 26.1 23.3 3.4 23 11.3 SSW 7 9 4 5 1012.7 1012.3 0.0
07/05:30pm 27.1 24.6 3.6 22 11.8 SSW 6 7 3 4 1012.5 1012.1 0.0
07/05:00pm 29.4 27.9 4.8 21 12.8 S 2 7 1 4 1012.2 1011.8 0.0
07/04:30pm 30.7 28.9 5.2 20 13.4 NNW 4 7 2 4 1012.0 1011.6 0.0
07/04:00pm 31.1 28.9 5.5 20 13.6 ENE 6 11 3 6 1011.8 1011.4 0.0
07/03:30pm 31.4 29.3 5.8 20 13.7 N 6 11 3 6 1011.9 1011.5 0.0
07/03:00pm 31.5 28.8 5.8 20 13.7 ESE 9 15 5 8 1011.7 1011.3 0.0
07/02:30pm 31.4 27.6 5.8 20 13.7 NNE 15 24 8 13 1012.0 1011.6 0.0
07/02:00pm 30.6 26.8 5.8 21 13.2 ENE 15 22 8 12 1012.3 1011.9 0.0
07/01:30pm 31.4 29.3 6.5 21 13.5 SW 7 20 4 11 1012.4 1012.0 0.0
07/01:00pm 31.5 28.8 7.2 22 13.3 NE 11 20 6 11 1012.9 1012.5 0.0
07/12:30pm 31.3 27.5 7.7 23 13.0 ENE 17 26 9 14 1013.2 1012.8 0.0
07/12:00pm 30.8 26.5 7.9 24 12.6 ENE 20 32 11 17 1014.0 1013.6 0.0
07/11:30am 30.2 26.5 8.0 25 12.2 ENE 17 28 9 15 1014.4 1014.0 0.0
07/11:00am 29.8 25.4 8.8 27 11.7 E 22 32 12 17 1014.9 1014.5 0.0
07/10:30am 29.2 26.0 9.8 30 10.9 E 17 24 9 13 1015.3 1014.9 0.0
07/10:00am 27.8 24.6 10.1 33 10.0 E 17 24 9 13 1015.7 1015.3 0.0
07/09:30am 26.5 23.8 10.2 36 9.1 E 15 26 8 14 1016.1 1015.7 0.0
07/09:00am 24.5 23.2 10.0 40 8.0 ENE 7 11 4 6 1016.3 1015.9 0.0
07/08:30am 21.4 19.7 8.3 43 6.9 ESE 7 9 4 5 1016.2 1015.8 0.0
07/08:00am 19.7 17.9 7.8 46 6.1 E 7 11 4 6 1015.9 1015.5 0.0
07/07:30am 15.7 14.5 4.7 48 5.2 CALM 0 0 0 0 1015.7 1015.3 0.0
07/07:00am 12.5 10.8 1.8 48 4.6 CALM 0 0 0 0 1015.7 1015.3 0.0
07/06:30am 11.2 9.3 0.6 48 4.4 CALM 0 0 0 0 1015.4 1015.0 0.0
07/06:00am 11.3 9.4 0.4 47 4.5 CALM 0 0 0 0 1015.1 1014.7 0.0
07/05:30am 11.7 9.8 0.5 46 4.7 CALM 0 0 0 0 1014.8 1014.4 0.0
07/05:00am 11.3 8.9 -0.2 45 4.7 NNW 2 7 1 4 1014.6 1014.2 0.0
07/04:30am 11.5 9.5 -0.3 44 4.8 CALM 0 0 0 0 1014.4 1014.0 0.0
07/04:00am 11.8 9.8 -0.4 43 5.0 CALM 0 0 0 0 1014.2 1013.8 0.0
07/03:30am 12.3 10.0 0.1 43 5.1 WSW 2 7 1 4 1014.3 1013.9 0.0
07/03:00am 13.2 10.9 0.6 42 5.3 SW 2 7 1 4 1014.1 1013.7 0.0
07/02:30am 12.3 9.1 -0.2 42 5.1 WNW 6 9 3 5 1014.1 1013.7 0.0
07/02:00am 12.7 10.3 -0.2 41 5.3 NNW 2 7 1 4 1014.2 1013.8 0.0
07/01:30am 12.9 10.4 -0.7 39 5.6 NNW 2 6 1 3 1014.2 1013.8 0.0
07/01:00am 13.2 10.7 -0.8 38 5.7 S 2 11 1 6 1014.4 1014.0 0.0
07/12:30am 15.2 12.2 1.0 38 6.2 SW 6 9 3 5 1014.6 1014.2 0.0
07/12:00am 14.1 12.0 -0.7 36 6.1 CALM 0 0 0 0 1014.5 1014.1 0.0
 
Date/Time
WST
Temp
°C
App
Temp
°C
Dew
Point
Rel
Hum
%
Delta-T
°C
Wind Press
QNH
hPa
Press
MSL
hPa
Rain
since 9 am
mm
Dir
 
Spd
km/h
Gust
km/h
Spd
kts
Gust
kts
06/11:30pm 14.8 12.4 -0.5 35 6.4 NW 2 6 1 3 1014.6 1014.2 0.0
06/11:00pm 15.4 12.0 -0.8 33 6.8 NE 7 11 4 6 1014.6 1014.2 0.0
06/10:30pm 15.6 12.1 -1.0 32 6.9 SW 7 11 4 6 1014.8 1014.4 0.0
06/10:00pm 17.6 14.0 0.3 31 7.6 SSE 9 13 5 7 1014.8 1014.4 0.0
06/09:30pm 17.8 14.1 0.0 30 7.8 SSE 9 13 5 7 1014.8 1014.4 0.0
06/09:00pm 19.4 15.1 0.9 29 8.3 SE 13 15 7 8 1014.7 1014.3 0.0
06/08:30pm 20.3 16.0 1.2 28 8.7 SSE 13 15 7 8 1014.6 1014.2 0.0
06/08:00pm 20.2 16.1 0.1 26 9.0 SSE 11 17 6 9 1014.7 1014.3 0.0
06/07:30pm 20.8 16.7 0.1 25 9.3 SSE 11 13 6 7 1014.5 1014.1 0.0
06/07:00pm 22.5 18.6 0.9 24 10.0 SSW 11 13 6 7 1014.3 1013.9 0.0
06/06:30pm 20.7 16.4 -1.8 22 9.7 SSW 11 13 6 7 1014.1 1013.7 0.0
06/06:00pm 23.6 19.8 -0.6 20 10.9 SSE 9 11 5 6 1013.6 1013.3 0.0
06/05:30pm 24.9 22.8 -1.0 18 11.7 CALM 0 9 0 5 1013.4 1013.0 0.0
06/05:00pm 28.2 25.6 0.9 17 13.1 NW 4 7 2 4 1013.0 1012.6 0.0
06/04:30pm 29.2 26.7 1.7 17 13.5 NNW 4 11 2 6 1013.0 1012.6 0.0
06/04:00pm 29.4 26.6 1.8 17 13.6 NW 6 13 3 7 1012.9 1012.5 0.0
06/03:30pm 29.6 25.5 2.0 17 13.7 NE 13 20 7 11 1012.9 1012.5 0.0
06/03:00pm 29.9 26.9 2.2 17 13.8 NNW 7 15 4 8 1012.8 1012.4 0.0
06/02:30pm 30.3 27.2 3.4 18 13.7 N 9 20 5 11 1012.9 1012.5 0.0
06/02:00pm 29.5 25.1 2.7 18 13.4 NNE 15 28 8 15 1013.0 1012.6 0.0
06/01:30pm 29.0 24.5 2.3 18 13.2 NE 15 33 8 18 1013.3 1012.9 0.0
06/01:00pm 29.2 24.5 3.2 19 13.1 NNE 17 26 9 14 1013.7 1013.4 0.0
06/12:30pm 29.0 25.0 3.1 19 13.0 ENE 13 24 7 13 1014.2 1013.8 0.0
06/12:00pm 29.3 25.6 4.7 21 12.7 ENE 13 30 7 16 1014.9 1014.5 0.0
06/11:30am 29.2 24.9 5.3 22 12.5 NE 17 30 9 16 1015.5 1015.1 0.0
06/11:00am 27.8 23.0 5.4 24 11.6 ENE 20 30 11 16 1016.0 1015.6 0.0
06/10:30am 27.4 22.0 6.2 26 11.1 ENE 24 35 13 19 1016.4 1016.0 0.0
06/10:00am 25.8 21.7 6.4 29 10.1 E 17 24 9 13 1016.9 1016.5 0.0
06/09:30am 23.9 20.1 5.8 31 9.2 ENE 15 20 8 11 1017.3 1016.9 0.0
06/09:00am 22.2 18.4 5.6 34 8.3 ENE 15 20 8 11 1017.4 1017.0 0.0
06/08:30am 20.0 16.0 4.9 37 7.4 ENE 15 20 8 11 1017.4 1017.0 0.0
06/08:00am 16.6 15.1 3.0 40 6.2 CALM 0 0 0 0 1017.3 1016.9 0.0
06/07:30am 12.9 10.9 0.0 41 5.4 CALM 0 0 0 0 1017.0 1016.6 0.0
06/07:00am 10.6 8.3 -2.1 41 4.9 CALM 0 0 0 0 1016.8 1016.4 0.0
06/06:30am 7.7 3.8 -5.0 40 4.4 WNW 7 7 4 4 1016.4 1016.0 0.0
06/06:00am 8.3 4.0 -4.8 39 4.6 SW 9 11 5 6 1015.9 1015.5 0.0
06/05:30am 8.1 4.7 -5.3 38 4.7 SW 4 9 2 5 1015.7 1015.3 0.0
06/05:00am 8.8 6.2 -4.7 38 4.8 CALM 0 0 0 0 1015.3 1014.9 0.0
06/04:30am 8.8 6.2 -5.1 37 4.9 CALM 0 0 0 0 1015.2 1014.8 0.0
06/04:00am 8.8 6.2 -5.4 36 5.0 CALM 0 0 0 0 1015.1 1014.7 0.0
06/03:30am 8.0 4.4 -6.9 34 5.0 WSW 4 9 2 5 1015.1 1014.7 0.0
06/03:00am 10.8 6.5 -4.4 34 5.6 SSW 9 11 5 6 1015.0 1014.6 0.0
06/02:30am 9.4 6.7 -6.4 32 5.4 CALM 0 0 0 0 1015.0 1014.6 0.0
06/02:00am 9.4 4.5 -6.8 31 5.5 E 11 15 6 8 1015.1 1014.7 0.0
06/01:30am 10.0 6.8 -7.2 29 5.9 SW 2 7 1 4 1014.9 1014.5 0.0
06/01:00am 10.2 7.3 -7.5 28 6.0 CALM 0 0 0 0 1015.1 1014.7 0.0
06/12:30am 12.3 9.5 -6.6 26 6.7 CALM 0 0 0 0 1015.3 1014.9 0.0
06/12:00am 12.6 9.8 -6.9 25 6.9 CALM 0 6 0 3 1015.5 1015.1 0.0
 
Date/Time
WST
Temp
°C
App
Temp
°C
Dew
Point
Rel
Hum
%
Delta-T
°C
Wind Press
QNH
hPa
Press
MSL
hPa
Rain
since 9 am
mm
Dir
 
Spd
km/h
Gust
km/h
Spd
kts
Gust
kts
05/11:30pm 13.7 8.9 -6.5 24 7.3 SSW 11 17 6 9 1015.5 1015.1 0.0
05/11:00pm 14.3 11.5 -6.5 23 7.6 CALM 0 0 0 0 1015.4 1015.0 0.0
05/10:30pm 15.0 10.9 -6.5 22 7.9 SSE 7 9 4 5 1015.5 1015.1 0.0
05/10:00pm 16.4 12.4 -6.0 21 8.5 SSW 7 11 4 6 1015.8 1015.4 0.0
05/09:30pm 16.5 13.0 -6.5 20 8.6 S 4 7 2 4 1016.0 1015.6 0.0
05/09:00pm 17.2 12.8 -5.9 20 8.8 SSE 9 9 5 5 1016.0 1015.6 0.0
05/08:30pm 17.8 12.6 -6.1 19 9.2 SSE 13 15 7 8 1015.9 1015.5 0.0
05/08:00pm 17.7 13.1 -7.6 17 9.4 SSE 9 13 5 7 1015.8 1015.4 0.0
05/07:30pm 19.0 14.4 -7.4 16 10.0 SSE 9 11 5 6 1015.6 1015.2 0.0
05/07:00pm 20.3 15.5 -6.3 16 10.4 SE 11 11 6 6 1015.4 1015.0 0.0
05/06:30pm 20.2 15.3 -7.2 15 10.5 SE 11 11 6 6 1015.0 1014.6 0.0
05/06:00pm 20.9 16.3 -8.5 13 11.1 SE 9 11 5 6 1014.8 1014.4 0.0
05/05:30pm 22.0 17.7 -8.7 12 11.7 ESE 7 9 4 5 1014.7 1014.3 0.0
05/05:00pm 24.8 20.2 -7.6 11 13.0 ESE 9 13 5 7 1014.6 1014.2 0.0
05/04:30pm 26.3 21.1 -6.5 11 13.6 SE 13 15 7 8 1014.4 1014.0 0.0
05/04:00pm 27.1 21.9 -5.9 11 13.9 ESE 13 20 7 11 1014.2 1013.8 0.0
05/03:30pm 27.3 22.6 -4.6 12 13.8 NE 11 17 6 9 1014.3 1013.9 0.0
05/03:00pm 28.4 25.2 -3.7 12 14.3 - 4 9 2 5 1014.3 1013.9 0.0
05/02:30pm 27.5 22.5 -4.4 12 13.9 SE 13 17 7 9 1014.5 1014.1 0.0
05/02:00pm 27.4 21.7 -3.4 13 13.6 ESE 17 24 9 13 1014.9 1014.5 0.0
05/01:30pm 27.6 22.8 -2.3 14 13.5 ENE 13 24 7 13 1015.1 1014.7 0.0
05/01:00pm 27.2 21.6 -2.6 14 13.4 E 17 26 9 14 1015.5 1015.1 0.0
05/12:30pm 27.2 22.1 -1.7 15 13.2 ESE 15 24 8 13 1016.1 1015.7 0.0
05/12:00pm 27.4 22.6 0.2 17 12.8 E 15 24 8 13 1016.6 1016.2 0.0
05/11:30am 26.4 20.8 0.2 18 12.3 ESE 19 28 10 15 1017.1 1016.7 0.0
05/11:00am 26.0 21.0 1.3 20 11.8 ESE 17 28 9 15 1017.6 1017.2 0.0
05/10:30am 26.2 21.1 2.8 22 11.5 E 19 28 10 15 1018.0 1017.6 0.0
05/10:00am 24.8 18.7 2.9 24 10.6 E 24 33 13 18 1018.4 1018.0 0.0
05/09:30am 24.6 19.7 4.9 28 9.9 E 20 30 11 16 1018.7 1018.3 0.0
05/09:00am 23.0 17.8 5.4 32 8.9 E 22 28 12 15 1018.8 1018.4 0.0
05/08:30am 21.4 17.6 5.7 36 7.9 E 15 20 8 11 1018.7 1018.3 0.0
05/08:00am 17.8 14.5 4.4 41 6.4 E 11 17 6 9 1018.5 1018.1 0.0
05/07:30am 14.9 12.0 2.8 44 5.5 E 7 11 4 6 1018.2 1017.8 0.0
05/07:00am 10.2 8.0 -1.5 44 4.6 CALM 0 0 0 0 1018.0 1017.6 0.0
05/06:30am 8.2 5.4 -3.3 44 4.2 NE 2 7 1 4 1017.9 1017.5 0.0
05/06:00am 9.3 7.0 -2.6 43 4.5 CALM 0 0 0 0 1017.7 1017.3 0.0
05/05:30am 7.9 5.4 -4.2 42 4.3 CALM 0 0 0 0 1017.4 1017.0 0.0
05/05:00am 8.3 5.7 -4.5 40 4.5 CALM 0 0 0 0 1017.1 1016.7 0.0
05/04:30am 9.3 6.8 -3.9 39 4.8 CALM 0 0 0 0 1016.9 1016.5 0.0
05/04:00am 10.2 7.8 -3.5 38 5.1 CALM 0 0 0 0 1016.7 1016.3 0.0
05/03:30am 9.3 6.7 -5.0 36 5.1 CALM 0 0 0 0 1016.5 1016.1 0.0
05/03:00am 9.6 7.0 -5.1 35 5.2 CALM 0 0 0 0 1016.4 1016.0 0.0
05/02:30am 10.0 7.4 -5.1 34 5.4 CALM 0 0 0 0 1016.4 1016.0 0.0
05/02:00am 11.1 8.5 -4.9 32 5.8 CALM 0 0 0 0 1016.5 1016.1 0.0
05/01:30am 13.3 9.5 -3.4 31 6.5 SSW 7 11 4 6 1016.5 1016.1 0.0
05/01:00am 13.6 11.1 -3.6 30 6.6 CALM 0 0 0 0 1016.7 1016.3 0.0
05/12:30am 13.9 10.7 -3.8 29 6.8 SSE 4 7 2 4 1016.6 1016.2 0.0
05/12:00am 13.5 10.9 -4.6 28 6.8 CALM 0 6 0 3 1016.7 1016.3 0.0

Other Formats:

Comma delimited format used in spreadsheet applications
http://www.bom.gov.au/fwo/IDW60801/IDW60801.94206.axf

JavaScript Object Notation format (JSON) in row-major order
http://www.bom.gov.au/fwo/IDW60801/IDW60801.94206.json